createdAt,value
2022-12-08T00:00:51.327Z,7.40
2022-12-08T00:03:21.039Z,6.97
2022-12-08T00:06:04.386Z,6.57
2022-12-08T00:08:46.446Z,6.80
2022-12-08T00:11:16.478Z,6.85
2022-12-08T00:13:45.969Z,6.43
2022-12-08T00:16:18.052Z,6.13
2022-12-08T00:18:47.807Z,6.22
2022-12-08T00:21:17.362Z,6.87
2022-12-08T00:23:47.112Z,6.13
2022-12-08T00:26:16.615Z,6.23
2022-12-08T00:28:46.174Z,6.03
2022-12-08T00:31:18.322Z,6.60
2022-12-08T00:33:48.004Z,6.07
2022-12-08T00:36:18.218Z,5.63
2022-12-08T00:38:48.455Z,5.50
2022-12-08T00:41:40.013Z,6.07
2022-12-08T00:44:09.909Z,5.77
2022-12-08T00:46:42.369Z,5.77
2022-12-08T00:49:12.501Z,4.87
2022-12-08T00:51:42.105Z,5.70
2022-12-08T00:54:11.887Z,5.13
2022-12-08T00:56:41.530Z,4.50
2022-12-08T00:59:11.275Z,4.80
2022-12-08T01:01:43.929Z,5.40
2022-12-08T01:06:46.115Z,5.03
2022-12-08T01:09:17.885Z,4.83
2022-12-08T01:11:47.916Z,5.17
2022-12-08T01:14:17.822Z,5.13
2022-12-08T01:16:50.185Z,5.50
2022-12-08T01:19:20.562Z,5.43
2022-12-08T01:21:50.395Z,6.00
2022-12-08T01:24:22.198Z,6.13
2022-12-08T01:26:52.855Z,6.30
2022-12-08T01:29:22.492Z,6.30
2022-12-08T01:31:54.567Z,6.07
2022-12-08T01:34:24.113Z,6.55
2022-12-08T01:36:53.761Z,6.60
2022-12-08T01:39:23.331Z,6.80
2022-12-08T01:41:52.886Z,5.60
2022-12-08T01:44:52.539Z,7.33
2022-12-08T01:47:26.840Z,7.30
2022-12-08T01:49:56.513Z,6.97
2022-12-08T01:52:29.498Z,7.50
2022-12-08T01:55:03.324Z,6.87
2022-12-08T01:57:37.634Z,7.43
2022-12-08T02:00:10.534Z,6.17
2022-12-08T02:02:52.748Z,7.17
2022-12-08T02:05:25.050Z,6.80
2022-12-08T02:07:55.197Z,6.90
2022-12-08T02:10:26.703Z,7.27
2022-12-08T02:12:59.235Z,7.63
2022-12-08T02:15:36.711Z,6.97
2022-12-08T02:18:23.290Z,7.20
2022-12-08T02:20:59.529Z,7.63
2022-12-08T02:23:39.340Z,6.67
2022-12-08T02:26:41.567Z,7.40
2022-12-08T02:29:38.357Z,8.60
2022-12-08T02:32:26.549Z,7.97
2022-12-08T02:35:02.326Z,7.10
2022-12-08T02:37:37.238Z,7.30
2022-12-08T02:40:16.636Z,7.27
2022-12-08T02:42:49.715Z,7.37
2022-12-08T02:45:25.305Z,7.70
2022-12-08T02:47:55.409Z,7.77
2022-12-08T02:50:27.555Z,6.77
2022-12-08T02:52:57.778Z,7.20
2022-12-08T02:55:30.338Z,7.70
2022-12-08T02:58:14.227Z,7.35
2022-12-08T03:01:00.008Z,7.57
2022-12-08T03:03:38.044Z,6.97
2022-12-08T03:06:19.663Z,7.40
2022-12-08T03:08:54.427Z,7.50
2022-12-08T03:11:27.482Z,7.47
2022-12-08T03:14:02.085Z,7.63
2022-12-08T03:16:33.577Z,6.27
2022-12-08T03:19:06.327Z,7.67
2022-12-08T03:24:12.656Z,6.80
2022-12-08T03:26:48.539Z,6.60
2022-12-08T03:29:18.234Z,7.03
2022-12-08T03:31:55.542Z,7.07
2022-12-08T03:34:28.285Z,6.40
2022-12-08T03:39:32.369Z,6.73
2022-12-08T03:42:01.946Z,7.30
2022-12-08T03:44:31.726Z,6.73
2022-12-08T03:47:01.308Z,7.50
2022-12-08T03:49:30.860Z,6.27
2022-12-08T03:52:03.057Z,7.10
2022-12-08T03:54:32.591Z,6.00
2022-12-08T03:57:02.173Z,7.93
2022-12-08T03:59:31.697Z,7.40
2022-12-08T04:02:01.292Z,7.53
2022-12-08T04:04:31.197Z,6.97
2022-12-08T04:07:03.362Z,6.67
2022-12-08T04:09:33.067Z,7.55
2022-12-08T04:12:02.612Z,6.70
2022-12-08T04:14:32.243Z,6.53
2022-12-08T04:17:01.820Z,7.07
2022-12-08T04:19:31.580Z,7.50
2022-12-08T04:22:03.689Z,7.30
2022-12-08T04:24:33.166Z,7.47
2022-12-08T04:27:02.701Z,7.53
2022-12-08T04:29:32.230Z,7.73
2022-12-08T04:32:01.701Z,7.23
2022-12-08T04:34:31.183Z,7.30
2022-12-08T04:37:03.242Z,6.90
2022-12-08T04:39:32.718Z,6.93
2022-12-08T04:42:02.322Z,8.83
2022-12-08T04:44:31.783Z,7.87
2022-12-08T04:47:01.367Z,7.60
2022-12-08T04:49:30.959Z,7.60
2022-12-08T04:52:03.062Z,7.67
2022-12-08T04:54:32.679Z,6.80
2022-12-08T04:57:02.189Z,6.37
2022-12-08T04:59:31.709Z,6.53
2022-12-08T05:02:01.373Z,7.30
2022-12-08T05:04:30.993Z,6.47
2022-12-08T05:07:03.045Z,6.70
2022-12-08T05:09:32.703Z,6.53
2022-12-08T05:12:02.221Z,6.90
2022-12-08T05:14:31.733Z,6.50
2022-12-08T05:17:06.249Z,6.77
2022-12-08T05:19:38.750Z,6.03
2022-12-08T05:22:10.789Z,6.23
2022-12-08T05:24:47.009Z,6.18
2022-12-08T05:27:17.063Z,5.60
2022-12-08T05:29:48.150Z,6.40
2022-12-08T05:32:17.664Z,5.57
2022-12-08T05:34:47.318Z,5.80
2022-12-08T05:37:19.453Z,5.83
2022-12-08T05:39:49.029Z,5.93
2022-12-08T05:42:24.382Z,5.83
2022-12-08T05:44:54.393Z,6.13
2022-12-08T05:47:23.896Z,5.97
2022-12-08T05:49:53.402Z,7.17
2022-12-08T05:52:25.507Z,6.20
2022-12-08T05:54:55.006Z,6.47
2022-12-08T05:57:24.581Z,6.47
2022-12-08T05:59:54.145Z,6.77
2022-12-08T06:02:23.785Z,7.63
2022-12-08T06:04:53.362Z,7.30
2022-12-08T06:07:25.529Z,6.93
2022-12-08T06:09:55.107Z,7.65
2022-12-08T06:12:24.627Z,7.57
2022-12-08T06:14:54.331Z,8.00
2022-12-08T06:17:23.936Z,8.23
2022-12-08T06:19:53.426Z,7.93
2022-12-08T06:22:25.497Z,8.77
2022-12-08T06:24:55.054Z,7.20
2022-12-08T06:27:24.589Z,8.03
2022-12-08T06:29:54.187Z,8.23
2022-12-08T06:32:27.397Z,8.20
2022-12-08T06:34:57.632Z,8.23
2022-12-08T06:37:30.010Z,8.53
2022-12-08T06:39:59.655Z,6.90
2022-12-08T06:42:41.674Z,8.50
2022-12-08T06:45:13.066Z,7.63
2022-12-08T06:47:42.651Z,6.50
2022-12-08T06:50:15.867Z,7.13
2022-12-08T06:53:00.775Z,6.37
2022-12-08T06:58:24.116Z,6.80
2022-12-08T07:00:53.879Z,6.20
2022-12-08T07:03:23.696Z,7.13
2022-12-08T07:05:53.409Z,6.93
2022-12-08T07:08:25.893Z,7.53
2022-12-08T07:10:55.579Z,7.28
2022-12-08T07:13:25.201Z,7.40
2022-12-08T07:15:55.082Z,7.33
2022-12-08T07:18:24.700Z,7.40
2022-12-08T07:20:54.241Z,7.17
2022-12-08T07:23:26.368Z,6.57
2022-12-08T07:25:55.969Z,7.55
2022-12-08T07:28:25.624Z,7.30
2022-12-08T07:30:55.196Z,6.50
2022-12-08T07:33:24.814Z,6.93
2022-12-08T07:35:58.395Z,6.80
2022-12-08T07:38:31.643Z,7.40
2022-12-08T07:41:02.587Z,7.17
2022-12-08T07:43:32.172Z,8.47
2022-12-08T07:46:01.843Z,7.23
2022-12-08T07:48:31.355Z,8.40
2022-12-08T07:51:03.627Z,7.77
2022-12-08T07:53:36.002Z,7.55
2022-12-08T07:56:08.776Z,7.28
2022-12-08T08:01:08.302Z,7.80
2022-12-08T08:03:38.069Z,8.23
2022-12-08T08:06:08.506Z,7.80
2022-12-08T08:08:40.600Z,8.87
2022-12-08T08:11:18.938Z,7.95
2022-12-08T08:13:50.734Z,8.57
2022-12-08T08:16:21.611Z,8.23
2022-12-08T08:18:51.872Z,8.90
2022-12-08T08:24:15.682Z,8.57
2022-12-08T08:26:45.250Z,8.88
2022-12-08T08:29:14.856Z,9.13
2022-12-08T08:31:44.429Z,9.77
2022-12-08T08:34:14.147Z,9.17
2022-12-08T08:36:43.935Z,9.23
2022-12-08T08:39:16.236Z,9.90
2022-12-08T08:41:46.086Z,10.32
2022-12-08T08:44:16.173Z,10.47
2022-12-08T08:46:45.776Z,10.27
2022-12-08T08:49:15.387Z,10.43
2022-12-08T08:51:45.199Z,10.73
2022-12-08T08:54:17.386Z,9.80
2022-12-08T08:56:48.270Z,9.70
2022-12-08T08:59:17.954Z,9.40
2022-12-08T09:01:47.600Z,9.47
2022-12-08T09:04:17.423Z,8.80
2022-12-08T09:06:48.136Z,9.63
2022-12-08T09:09:20.829Z,9.93
2022-12-08T09:14:19.651Z,8.30
2022-12-08T09:16:49.226Z,8.33
2022-12-08T09:19:18.774Z,7.80
2022-12-08T09:21:48.507Z,8.33
2022-12-08T09:24:20.622Z,7.93
2022-12-08T09:26:50.176Z,8.40
2022-12-08T09:29:19.992Z,7.77
2022-12-08T09:31:49.728Z,8.47
2022-12-08T09:34:19.713Z,9.50
2022-12-08T09:36:49.773Z,8.27
2022-12-08T09:39:22.682Z,9.20
2022-12-08T09:42:01.483Z,8.73
2022-12-08T09:44:44.833Z,7.27
2022-12-08T09:47:23.996Z,8.70
2022-12-08T09:50:04.508Z,8.30
2022-12-08T09:52:39.201Z,8.83
2022-12-08T09:55:18.300Z,8.37
2022-12-08T09:57:53.076Z,8.30
2022-12-08T10:00:25.997Z,7.93
2022-12-08T10:02:55.546Z,7.30
2022-12-08T10:05:26.996Z,7.67
2022-12-08T10:08:06.554Z,6.77
2022-12-08T10:10:44.550Z,6.70
2022-12-08T10:13:22.227Z,6.87
2022-12-08T10:16:00.300Z,7.33
2022-12-08T10:18:32.983Z,7.63
2022-12-08T10:21:18.881Z,7.47
2022-12-08T10:23:52.898Z,6.90
2022-12-08T10:26:25.188Z,7.13
2022-12-08T10:29:01.148Z,6.53
2022-12-08T10:31:32.712Z,6.47
2022-12-08T10:34:04.438Z,6.80
2022-12-08T10:36:48.922Z,5.83
2022-12-08T10:39:36.124Z,7.43
2022-12-08T10:42:11.647Z,5.83
2022-12-08T10:44:55.827Z,6.07
2022-12-08T10:47:28.232Z,5.83
2022-12-08T10:50:15.098Z,6.95
2022-12-08T10:52:44.601Z,6.47
2022-12-08T10:55:19.450Z,6.80
2022-12-08T10:57:51.718Z,6.53
2022-12-08T11:00:23.923Z,7.22
2022-12-08T11:02:56.746Z,7.82
2022-12-08T11:05:30.569Z,6.83
2022-12-08T11:08:00.426Z,7.10
2022-12-08T11:10:37.087Z,6.80
2022-12-08T11:13:19.981Z,8.33
2022-12-08T11:15:49.734Z,6.53
2022-12-08T11:18:28.734Z,6.47
2022-12-08T11:21:09.673Z,5.93
2022-12-08T11:23:40.412Z,6.90
2022-12-08T11:26:19.285Z,5.93
2022-12-08T11:28:51.387Z,6.70
2022-12-08T11:31:30.382Z,6.05
2022-12-08T11:34:00.005Z,5.87
2022-12-08T11:36:34.214Z,6.00
2022-12-08T11:39:07.215Z,5.77
2022-12-08T11:41:41.585Z,5.53
2022-12-08T11:44:28.501Z,5.20
2022-12-08T11:47:00.940Z,5.07
2022-12-08T11:49:37.020Z,5.38
2022-12-08T11:52:15.661Z,5.10
2022-12-08T11:54:50.671Z,5.50
2022-12-08T11:57:20.947Z,4.97
2022-12-08T11:59:54.795Z,5.17
2022-12-08T12:02:27.371Z,3.93
2022-12-08T12:05:02.133Z,4.80
2022-12-08T12:07:49.082Z,4.80
2022-12-08T12:10:39.697Z,4.50
2022-12-08T12:13:22.009Z,4.20
2022-12-08T12:16:38.593Z,4.50
2022-12-08T12:19:14.913Z,4.47
2022-12-08T12:21:47.431Z,4.13
2022-12-08T12:24:26.068Z,4.85
2022-12-08T12:27:02.318Z,4.67
2022-12-08T12:29:34.929Z,4.17
2022-12-08T12:32:11.446Z,4.47
2022-12-08T12:34:51.060Z,5.10
2022-12-08T12:37:24.376Z,4.50
2022-12-08T12:40:00.963Z,3.87
2022-12-08T12:42:44.769Z,4.53
2022-12-08T12:45:32.490Z,4.80
2022-12-08T12:48:27.341Z,4.30
2022-12-08T12:50:57.895Z,4.60
2022-12-08T12:53:52.938Z,4.43
2022-12-08T12:56:50.919Z,4.17
2022-12-08T13:00:08.629Z,4.27
2022-12-08T13:02:41.628Z,4.33
2022-12-08T13:05:19.357Z,4.50
2022-12-08T13:07:55.366Z,4.30
2022-12-08T13:10:28.733Z,4.57
2022-12-08T13:13:17.755Z,4.33
2022-12-08T13:15:53.436Z,4.10
2022-12-08T13:18:26.579Z,4.17
2022-12-08T13:21:08.044Z,4.10
2022-12-08T13:23:49.859Z,3.53
2022-12-08T13:26:22.725Z,3.93
2022-12-08T13:29:17.732Z,4.00
2022-12-08T13:31:51.261Z,4.00
2022-12-08T13:34:32.855Z,4.30
2022-12-08T13:37:20.810Z,4.37
2022-12-08T13:39:54.775Z,4.30
2022-12-08T13:42:32.168Z,4.87
2022-12-08T13:57:06.865Z,5.13
2022-12-08T13:59:46.578Z,5.00
2022-12-08T14:02:20.699Z,4.73
2022-12-08T14:07:42.773Z,5.40
2022-12-08T14:10:20.773Z,5.60
2022-12-08T14:12:57.626Z,5.23
2022-12-08T14:15:31.365Z,4.87
2022-12-08T14:18:05.586Z,4.80
2022-12-08T14:20:57.883Z,5.23
2022-12-08T14:23:26.402Z,5.87
2022-12-08T14:25:59.308Z,5.17
2022-12-08T14:28:28.852Z,5.77
2022-12-08T14:30:58.779Z,5.60
2022-12-08T14:33:29.089Z,6.17
2022-12-08T14:35:59.421Z,5.70
2022-12-08T14:38:29.392Z,6.20
2022-12-08T14:41:09.544Z,6.43
2022-12-08T14:43:41.057Z,6.00
2022-12-08T14:46:23.322Z,6.63
2022-12-08T14:48:53.678Z,5.90
2022-12-08T14:51:30.245Z,7.20
2022-12-08T14:54:02.202Z,6.80
2022-12-08T14:56:39.521Z,6.82
2022-12-08T14:59:15.312Z,6.37
2022-12-08T15:01:45.794Z,6.87
2022-12-08T15:04:21.496Z,6.07
2022-12-08T15:06:55.680Z,6.80
2022-12-08T15:12:08.942Z,6.47
2022-12-08T15:14:39.984Z,6.50
2022-12-08T15:20:04.484Z,7.07
2022-12-08T15:22:34.506Z,6.78
2022-12-08T15:25:04.688Z,7.43
2022-12-08T15:27:49.579Z,6.53
2022-12-08T15:30:20.942Z,6.43
2022-12-08T15:32:52.380Z,7.17
2022-12-08T15:35:22.553Z,6.40
2022-12-08T15:37:52.065Z,6.97
2022-12-08T15:40:27.040Z,6.90
2022-12-08T15:42:59.156Z,7.77
2022-12-08T15:45:33.655Z,7.65
2022-12-08T15:48:03.632Z,6.77
2022-12-08T15:50:33.170Z,7.07
2022-12-08T15:53:02.743Z,7.23
2022-12-08T15:55:38.490Z,7.60
2022-12-08T15:58:53.157Z,7.17
2022-12-08T16:01:16.356Z,7.97
2022-12-08T16:09:32.984Z,7.87
2022-12-08T16:12:15.263Z,7.23
2022-12-08T16:15:47.223Z,7.93
2022-12-08T16:17:38.258Z,7.70
2022-12-08T16:20:09.825Z,7.97
2022-12-08T16:23:07.602Z,8.20
2022-12-08T16:25:46.028Z,7.93
2022-12-08T16:28:52.166Z,8.87
2022-12-08T16:31:17.742Z,7.87
2022-12-08T16:33:50.960Z,8.05
2022-12-08T16:36:20.506Z,7.77
2022-12-08T16:38:50.005Z,8.30
2022-12-08T16:41:33.288Z,7.87
2022-12-08T16:44:05.191Z,8.43
2022-12-08T16:46:37.530Z,7.60
2022-12-08T16:49:07.324Z,8.10
2022-12-08T16:51:36.847Z,8.30
2022-12-08T16:54:06.458Z,8.17
2022-12-08T16:56:35.958Z,8.20
2022-12-08T16:59:05.463Z,8.47
2022-12-08T17:01:37.606Z,8.50
2022-12-08T17:04:30.953Z,8.80
2022-12-08T17:06:57.823Z,8.40
2022-12-08T17:09:28.573Z,8.40
2022-12-08T17:12:03.479Z,8.43
2022-12-08T17:14:35.469Z,8.53
2022-12-08T17:17:07.632Z,8.93
2022-12-08T17:19:37.259Z,8.73
2022-12-08T17:22:07.158Z,8.30
2022-12-08T17:24:36.690Z,9.83
2022-12-08T17:27:06.826Z,8.57
2022-12-08T17:29:37.214Z,8.07
2022-12-08T17:32:09.801Z,7.60
2022-12-08T17:34:39.327Z,8.80
2022-12-08T17:37:08.906Z,8.60
2022-12-08T17:39:39.360Z,8.63
2022-12-08T17:42:09.855Z,8.60
2022-12-08T17:44:39.545Z,9.83
2022-12-08T17:47:11.775Z,8.93
2022-12-08T17:49:41.520Z,9.45
2022-12-08T17:52:11.284Z,9.07
2022-12-08T17:54:41.278Z,9.27
2022-12-08T17:57:10.801Z,8.63
2022-12-08T17:59:40.575Z,8.63
2022-12-08T18:02:15.164Z,9.30
2022-12-08T18:04:44.768Z,9.03
2022-12-08T18:07:14.349Z,9.23
2022-12-08T18:09:43.929Z,10.40
2022-12-08T18:12:13.465Z,9.57
2022-12-08T18:14:43.076Z,8.53
2022-12-08T18:17:15.508Z,9.43
2022-12-08T18:19:45.036Z,8.50
2022-12-08T18:22:16.017Z,8.17
2022-12-08T18:24:47.630Z,9.63
2022-12-08T18:27:17.170Z,8.70
2022-12-08T18:29:46.801Z,9.00
2022-12-08T18:32:22.700Z,8.63
2022-12-08T18:34:52.496Z,9.03
2022-12-08T18:37:22.055Z,9.40
2022-12-08T18:39:51.716Z,9.23
2022-12-08T18:42:28.310Z,9.30
2022-12-08T18:45:02.787Z,9.80
2022-12-08T18:47:36.228Z,10.30
2022-12-08T18:50:06.611Z,11.30
2022-12-08T18:52:36.952Z,12.13
2022-12-08T18:55:07.777Z,11.60
2022-12-08T18:57:39.027Z,10.37
2022-12-08T19:00:12.227Z,11.13
2022-12-08T19:02:45.267Z,9.97
2022-12-08T19:05:16.054Z,10.10
2022-12-08T19:07:45.967Z,10.47
2022-12-08T19:10:16.143Z,11.23
2022-12-08T19:12:45.671Z,11.00
2022-12-08T19:15:15.426Z,10.40
2022-12-08T19:17:47.570Z,9.97
2022-12-08T19:20:17.422Z,9.85
2022-12-08T19:22:46.991Z,9.87
2022-12-08T19:25:16.465Z,9.87
2022-12-08T19:27:46.219Z,10.57
2022-12-08T19:30:17.194Z,11.57
2022-12-08T19:32:49.336Z,9.93
2022-12-08T19:35:19.083Z,10.13
2022-12-08T19:37:48.592Z,11.07
2022-12-08T19:40:30.853Z,10.57
2022-12-08T19:43:12.967Z,9.05
2022-12-08T19:45:42.507Z,9.95
2022-12-08T19:48:14.711Z,8.77
2022-12-08T19:50:44.191Z,11.85
2022-12-08T19:53:15.557Z,8.73
2022-12-08T19:55:46.753Z,11.27
2022-12-08T19:58:16.633Z,12.23
2022-12-08T20:00:46.681Z,12.20
2022-12-08T20:03:21.404Z,11.60
2022-12-08T20:05:53.290Z,11.07
2022-12-08T20:08:22.962Z,11.13
2022-12-08T20:10:56.121Z,11.33
2022-12-08T20:13:38.149Z,11.43
2022-12-08T20:16:08.594Z,11.10
2022-12-08T20:18:42.082Z,10.63
2022-12-08T20:21:12.699Z,12.00
2022-12-08T20:23:42.228Z,9.60
2022-12-08T20:26:17.439Z,10.43
2022-12-08T20:28:47.123Z,10.73
2022-12-08T20:31:24.883Z,11.23
2022-12-08T20:33:57.323Z,10.40
2022-12-08T20:36:26.942Z,10.10
2022-12-08T20:38:57.430Z,10.90
2022-12-08T20:41:27.356Z,10.63
2022-12-08T20:43:56.935Z,10.83
2022-12-08T20:46:26.522Z,10.60
2022-12-08T20:49:01.219Z,12.73
2022-12-08T20:51:32.201Z,10.80
2022-12-08T20:54:02.469Z,10.37
2022-12-08T20:56:32.201Z,10.63
2022-12-08T20:59:02.413Z,12.23
2022-12-08T21:01:32.139Z,11.13
2022-12-08T21:04:04.623Z,11.87
2022-12-08T21:09:04.248Z,11.40
2022-12-08T21:11:34.124Z,11.53
2022-12-08T21:14:03.901Z,12.97
2022-12-08T21:16:33.966Z,11.40
2022-12-08T21:19:06.445Z,12.83
2022-12-08T21:21:36.490Z,12.50
2022-12-08T21:24:06.883Z,12.70
2022-12-08T21:26:36.587Z,14.43
2022-12-08T21:29:06.937Z,12.67
2022-12-08T21:31:36.713Z,14.43
2022-12-08T21:34:08.909Z,13.27
2022-12-08T21:36:38.509Z,14.02
2022-12-08T21:39:12.828Z,13.30
2022-12-08T21:41:55.081Z,14.20
2022-12-08T21:44:24.665Z,13.57
2022-12-08T21:46:55.095Z,13.27
2022-12-08T21:49:27.543Z,12.93
2022-12-08T21:51:57.583Z,12.82
2022-12-08T21:54:27.448Z,13.63
2022-12-08T21:56:57.446Z,12.87
2022-12-08T21:59:27.227Z,14.77
2022-12-08T22:01:56.921Z,13.23
2022-12-08T22:04:29.321Z,14.13
2022-12-08T22:06:59.363Z,13.43
2022-12-08T22:09:29.039Z,13.67
2022-12-08T22:11:58.728Z,12.70
2022-12-08T22:14:28.366Z,12.73
2022-12-08T22:16:57.999Z,12.67
2022-12-08T22:19:30.268Z,15.10
2022-12-08T22:21:59.952Z,12.07
2022-12-08T22:24:29.745Z,13.73
2022-12-08T22:26:59.576Z,13.60
2022-12-08T22:29:29.311Z,14.27
2022-12-08T22:31:59.091Z,13.17
2022-12-08T22:34:31.388Z,13.33
2022-12-08T22:37:01.098Z,13.27
2022-12-08T22:39:30.775Z,13.17
2022-12-08T22:42:00.414Z,13.00
2022-12-08T22:44:30.326Z,13.70
2022-12-08T22:47:00.385Z,13.33
2022-12-08T22:49:32.912Z,13.33
2022-12-08T22:52:02.576Z,12.90
2022-12-08T22:54:32.515Z,13.53
2022-12-08T22:57:02.282Z,13.20
2022-12-08T22:59:33.367Z,13.13
2022-12-08T23:02:03.132Z,13.57
2022-12-08T23:04:35.688Z,15.50
2022-12-08T23:07:06.049Z,13.27
2022-12-08T23:09:35.550Z,14.30
2022-12-08T23:12:05.091Z,13.50
2022-12-08T23:14:34.566Z,13.37
2022-12-08T23:17:06.303Z,12.17
2022-12-08T23:19:41.550Z,11.43
2022-12-08T23:22:11.092Z,13.30
2022-12-08T23:24:40.568Z,12.13
2022-12-08T23:27:10.285Z,11.97
2022-12-08T23:29:40.402Z,12.07
2022-12-08T23:32:09.958Z,12.37
2022-12-08T23:34:42.226Z,12.47
2022-12-08T23:37:11.768Z,10.82
2022-12-08T23:39:41.275Z,14.10
2022-12-08T23:42:11.106Z,12.47
2022-12-08T23:44:40.739Z,12.67
2022-12-08T23:47:10.403Z,11.37
2022-12-08T23:49:42.601Z,11.83
2022-12-08T23:52:14.835Z,12.07
2022-12-08T23:54:44.921Z,12.25
2022-12-08T23:57:14.744Z,11.70
2022-12-08T23:59:44.269Z,12.30
